Time;durP1;ratioP1;P1;durP2;ratioP2;P2;SDS_P1;SDS_P2;PMS_P1;PMS_P2;Temp;Humidity;BMP_temperature;BMP_pressure;BME280_temperature;BME280_humidity;BME280_pressure;Samples;Min_cycle;Max_cycle;Signal;HPM_P1;HPM_P2
2022/03/04 00:00:24;;;;;;;28.42;24.67;;;6.40;99.90;;;;;;5027891;28;20219;-78
2022/03/04 00:02:52;;;;;;;35.30;28.25;;;6.40;99.90;;;;;;5028565;28;20224;-78
2022/03/04 00:05:20;;;;;;;29.73;25.23;;;6.40;99.90;;;;;;5026572;28;20226;-79
2022/03/04 00:07:47;;;;;;;29.38;24.95;;;6.50;99.90;;;;;;5028196;28;20235;-78
2022/03/04 00:10:14;;;;;;;27.83;24.77;;;6.50;99.90;;;;;;5031195;28;20196;-79
2022/03/04 00:12:41;;;;;;;31.83;25.98;;;6.50;99.90;;;;;;5028438;28;20227;-79
2022/03/04 00:15:09;;;;;;;30.45;25.27;;;6.40;99.90;;;;;;5029126;28;20214;-78
2022/03/04 00:17:37;;;;;;;30.83;25.70;;;6.40;99.90;;;;;;5028924;28;20219;-78
2022/03/04 00:20:04;;;;;;;33.67;27.05;;;6.30;99.90;;;;;;5028028;28;20238;-80
2022/03/04 00:22:34;;;;;;;29.92;24.63;;;6.20;99.90;;;;;;5031054;28;20227;-77
2022/03/04 00:25:01;;;;;;;27.40;23.40;;;6.00;99.90;;;;;;5028190;28;20203;-79
2022/03/04 00:30:11;;;;;;;28.35;23.70;;;5.80;99.90;;;;;;4987032;28;20260;-76
2022/03/04 00:32:39;;;;;;;28.17;24.45;;;5.60;99.90;;;;;;4988482;28;20224;-76
2022/03/04 00:35:08;;;;;;;28.73;24.65;;;5.50;99.90;;;;;;4990551;28;20197;-78
2022/03/04 00:37:36;;;;;;;29.95;24.38;;;5.40;99.90;;;;;;4990657;28;20789;-79
2022/03/04 00:40:05;;;;;;;33.72;27.58;;;5.40;99.90;;;;;;4987859;28;20225;-77
2022/03/04 00:42:32;;;;;;;30.23;26.02;;;5.40;99.90;;;;;;4986557;28;20216;-80
2022/03/04 00:44:59;;;;;;;31.23;26.35;;;5.30;99.90;;;;;;4986572;28;20297;-76
2022/03/04 00:47:26;;;;;;;38.78;32.08;;;5.30;99.90;;;;;;4987660;28;20247;-75
2022/03/04 00:49:54;;;;;;;45.33;35.05;;;5.30;99.90;;;;;;4985161;28;20232;-76
2022/03/04 00:52:21;;;;;;;37.85;32.05;;;5.50;99.90;;;;;;4987876;28;20201;-75
2022/03/04 00:54:49;;;;;;;32.00;27.80;;;5.70;99.90;;;;;;4987366;28;20201;-74
2022/03/04 00:57:17;;;;;;;32.67;27.80;;;5.70;99.90;;;;;;4986509;28;20209;-77
2022/03/04 00:59:44;;;;;;;33.28;27.35;;;5.70;99.90;;;;;;4989074;28;20232;-79
2022/03/04 01:02:11;;;;;;;33.38;27.95;;;5.60;99.90;;;;;;4987648;28;20201;-75
2022/03/04 01:04:38;;;;;;;38.97;29.20;;;5.50;99.90;;;;;;4988579;28;20205;-77
2022/03/04 01:07:06;;;;;;;33.97;28.20;;;5.40;99.90;;;;;;4988352;28;20579;-75
2022/03/04 01:09:33;;;;;;;37.25;29.58;;;5.20;99.90;;;;;;4987915;28;20450;-75
2022/03/04 01:12:02;;;;;;;31.85;26.58;;;5.00;99.90;;;;;;4991386;28;20359;-75
2022/03/04 01:14:29;;;;;;;33.25;25.70;;;4.90;99.90;;;;;;4983423;28;20212;-79
2022/03/04 01:16:58;;;;;;;33.60;27.65;;;4.80;99.90;;;;;;4986728;28;20221;-76
2022/03/04 01:19:25;;;;;;;30.42;26.10;;;4.60;99.90;;;;;;4986227;28;20271;-76
2022/03/04 01:21:52;;;;;;;31.38;25.65;;;4.50;99.90;;;;;;4983979;28;20208;-75
2022/03/04 01:24:19;;;;;;;30.30;25.83;;;4.40;99.90;;;;;;4983923;28;20243;-77
2022/03/04 01:26:46;;;;;;;28.25;24.00;;;4.30;99.90;;;;;;4984640;28;20410;-79
2022/03/04 01:29:15;;;;;;;34.28;27.98;;;4.30;99.90;;;;;;4982114;28;20237;-77
2022/03/04 01:31:42;;;;;;;33.58;27.05;;;4.30;99.90;;;;;;4981019;28;20200;-75
2022/03/04 01:34:09;;;;;;;36.60;29.67;;;4.30;99.90;;;;;;4979193;28;20251;-75
2022/03/04 01:36:36;;;;;;;34.70;28.55;;;4.30;99.90;;;;;;4984769;28;20200;-75
2022/03/04 01:39:04;;;;;;;35.60;29.85;;;4.30;99.90;;;;;;4980438;28;20229;-75
2022/03/04 01:41:31;;;;;;;42.17;32.60;;;4.20;99.90;;;;;;4986104;28;20456;-76
2022/03/04 01:43:58;;;;;;;38.80;31.23;;;4.20;99.90;;;;;;4978625;28;20251;-74
2022/03/04 01:46:30;;;;;;;32.45;26.50;;;4.10;99.90;;;;;;4985440;28;20197;-75
2022/03/04 01:48:58;;;;;;;31.63;25.30;;;4.00;99.90;;;;;;4982597;28;20590;-76
2022/03/04 01:51:25;;;;;;;29.75;25.00;;;4.00;99.90;;;;;;4982790;28;20197;-77
2022/03/04 01:53:52;;;;;;;29.60;24.63;;;4.10;99.90;;;;;;4980215;28;20243;-75
2022/03/04 01:56:21;;;;;;;28.80;24.52;;;4.20;99.90;;;;;;4962888;28;20214;-76
2022/03/04 01:58:48;;;;;;;26.58;23.23;;;4.30;99.90;;;;;;4981742;28;20727;-75
2022/03/04 02:01:16;;;;;;;29.38;24.95;;;4.40;99.90;;;;;;4983192;28;20235;-74
2022/03/04 02:03:45;;;;;;;28.23;24.02;;;4.50;99.90;;;;;;4982912;28;20229;-74
2022/03/04 02:06:12;;;;;;;29.65;24.20;;;4.50;99.90;;;;;;4988920;28;20212;-75
2022/03/04 02:08:39;;;;;;;30.45;26.00;;;4.60;99.90;;;;;;4984006;28;20227;-75
2022/03/04 02:11:07;;;;;;;31.13;25.50;;;4.60;99.90;;;;;;4981506;28;20220;-75
2022/03/04 02:13:34;;;;;;;28.52;23.88;;;4.60;99.90;;;;;;4985929;28;20232;-76
2022/03/04 02:16:02;;;;;;;30.23;24.98;;;4.60;99.90;;;;;;4978885;28;20239;-75
2022/03/04 02:18:29;;;;;;;30.27;24.67;;;4.70;99.90;;;;;;4986290;28;20255;-75
2022/03/04 02:21:02;;;;;;;32.00;25.52;;;4.70;99.90;;;;;;4985321;28;20239;-74
2022/03/04 02:23:30;;;;;;;30.30;25.73;;;4.70;99.90;;;;;;4985287;28;20220;-75
2022/03/04 02:25:59;;;;;;;32.60;25.95;;;4.80;99.90;;;;;;4987988;28;20200;-78
2022/03/04 02:28:26;;;;;;;29.88;24.00;;;4.80;99.90;;;;;;4985419;28;20304;-74
2022/03/04 02:30:53;;;;;;;29.77;24.52;;;4.70;99.90;;;;;;4981792;28;20197;-76
2022/03/04 02:33:21;;;;;;;30.25;24.77;;;4.70;99.90;;;;;;4981651;28;20462;-75
2022/03/04 02:35:49;;;;;;;25.67;22.83;;;4.60;99.90;;;;;;4986924;28;20204;-77
2022/03/04 02:38:16;;;;;;;26.98;23.33;;;4.60;99.90;;;;;;4986586;28;20743;-76
2022/03/04 02:40:44;;;;;;;28.15;23.38;;;4.60;99.90;;;;;;4984191;28;20221;-77
2022/03/04 02:43:11;;;;;;;29.83;24.67;;;4.50;99.90;;;;;;4981489;28;20221;-76
2022/03/04 02:45:39;;;;;;;28.58;24.80;;;4.50;99.90;;;;;;4985794;28;20561;-77
2022/03/04 02:48:06;;;;;;;28.30;24.33;;;4.40;99.90;;;;;;4987968;28;20601;-76
2022/03/04 02:50:34;;;;;;;30.63;26.00;;;4.40;99.90;;;;;;4985684;28;20201;-74
2022/03/04 02:53:01;;;;;;;27.83;23.90;;;4.30;99.90;;;;;;4988415;28;20220;-75
2022/03/04 02:55:28;;;;;;;32.08;26.20;;;4.30;99.90;;;;;;4985406;28;20208;-75
2022/03/04 02:57:56;;;;;;;31.23;25.77;;;4.20;99.90;;;;;;4994910;28;20256;-78
2022/03/04 03:00:24;;;;;;;31.70;25.95;;;4.20;99.90;;;;;;4990387;28;20220;-75
2022/03/04 03:02:51;;;;;;;30.67;25.23;;;4.20;99.90;;;;;;4985771;28;20228;-73
2022/03/04 03:05:18;;;;;;;30.98;25.92;;;4.20;99.90;;;;;;4986661;28;20564;-76
2022/03/04 03:07:45;;;;;;;28.23;24.90;;;4.10;99.90;;;;;;4989745;28;20202;-75
2022/03/04 03:10:12;;;;;;;30.70;24.30;;;4.00;99.90;;;;;;4989378;28;20193;-74
2022/03/04 03:12:43;;;;;;;28.77;24.08;;;4.00;99.90;;;;;;4988830;28;20671;-75
2022/03/04 03:15:13;;;;;;;29.42;25.25;;;4.00;99.90;;;;;;4989707;28;20653;-75
2022/03/04 03:17:40;;;;;;;29.05;23.95;;;4.00;99.90;;;;;;4988020;28;20213;-75
2022/03/04 03:20:10;;;;;;;31.83;24.15;;;4.00;99.90;;;;;;4984260;28;20227;-78
2022/03/04 03:22:37;;;;;;;29.55;24.15;;;4.00;99.90;;;;;;4983517;28;20803;-75
2022/03/04 03:25:05;;;;;;;30.20;25.40;;;4.00;99.90;;;;;;4985509;28;20208;-78
2022/03/04 03:27:32;;;;;;;29.13;24.88;;;3.90;99.90;;;;;;4986934;28;20204;-77
2022/03/04 03:29:59;;;;;;;31.15;25.40;;;3.90;99.90;;;;;;4983510;28;20228;-77
2022/03/04 03:32:28;;;;;;;30.63;25.63;;;3.90;99.90;;;;;;4988800;28;20690;-78
2022/03/04 03:34:55;;;;;;;28.98;24.73;;;3.90;99.90;;;;;;4984927;28;20221;-77
2022/03/04 03:37:22;;;;;;;39.40;31.25;;;3.90;99.90;;;;;;4983246;28;20204;-79
2022/03/04 03:39:49;;;;;;;35.58;26.90;;;3.90;99.90;;;;;;4983955;28;20224;-76
2022/03/04 03:42:16;;;;;;;33.58;27.20;;;3.90;99.90;;;;;;4991006;28;20205;-78
2022/03/04 03:44:44;;;;;;;33.63;27.17;;;3.80;99.90;;;;;;4988659;28;20707;-77
2022/03/04 03:47:11;;;;;;;34.72;27.42;;;3.80;99.90;;;;;;4989784;28;20205;-77
2022/03/04 03:49:40;;;;;;;32.90;26.73;;;3.80;99.90;;;;;;4983781;28;20228;-78
2022/03/04 03:52:09;;;;;;;30.98;25.95;;;3.70;99.90;;;;;;4987269;28;20205;-76
2022/03/04 03:54:36;;;;;;;31.52;25.75;;;3.70;99.90;;;;;;4984752;28;20225;-76
2022/03/04 03:57:04;;;;;;;33.00;25.00;;;3.70;99.90;;;;;;4983694;28;20220;-75
2022/03/04 03:59:31;;;;;;;32.78;25.48;;;3.70;99.90;;;;;;4984848;28;20229;-74
2022/03/04 04:01:59;;;;;;;31.33;26.40;;;3.70;99.90;;;;;;4983530;28;20224;-76
2022/03/04 04:04:27;;;;;;;33.28;27.10;;;3.70;99.90;;;;;;4983128;28;20344;-76
2022/03/04 04:06:56;;;;;;;33.85;26.98;;;3.70;99.90;;;;;;4985871;28;20545;-76
2022/03/04 04:09:23;;;;;;;32.53;26.98;;;3.70;99.90;;;;;;4985407;28;20870;-76
2022/03/04 04:11:50;;;;;;;31.35;26.15;;;3.70;99.90;;;;;;4987658;28;20206;-75
2022/03/04 04:14:17;;;;;;;32.60;26.75;;;3.70;99.90;;;;;;4986149;28;20731;-76
2022/03/04 04:16:44;;;;;;;29.75;25.10;;;3.70;99.90;;;;;;4990400;28;20208;-76
2022/03/04 04:19:12;;;;;;;31.98;26.38;;;3.70;99.90;;;;;;4986442;28;20665;-77
2022/03/04 04:21:39;;;;;;;31.90;26.48;;;3.70;99.90;;;;;;4986041;28;20591;-76
2022/03/04 04:24:08;;;;;;;32.95;26.27;;;3.80;99.90;;;;;;4979309;28;20340;-77
2022/03/04 04:26:35;;;;;;;33.08;28.13;;;3.80;99.90;;;;;;4984545;28;20205;-77
2022/03/04 04:29:03;;;;;;;36.22;28.25;;;3.70;99.90;;;;;;4985301;28;20228;-77
2022/03/04 04:31:31;;;;;;;34.20;27.70;;;3.70;99.90;;;;;;4984498;28;20205;-77
2022/03/04 04:33:59;;;;;;;31.63;27.38;;;3.70;99.90;;;;;;4982746;28;20228;-79
2022/03/04 04:36:27;;;;;;;33.53;28.33;;;3.70;99.90;;;;;;4985778;28;20212;-75
2022/03/04 04:38:54;;;;;;;31.85;25.80;;;3.70;99.90;;;;;;4985542;28;20255;-76
2022/03/04 04:41:23;;;;;;;32.10;26.73;;;3.70;99.90;;;;;;4989912;28;20213;-75
2022/03/04 04:43:51;;;;;;;33.10;28.10;;;3.70;99.90;;;;;;4981863;28;20216;-79
2022/03/04 04:46:18;;;;;;;34.60;28.63;;;3.70;99.90;;;;;;4988324;28;20203;-76
2022/03/04 04:48:45;;;;;;;31.10;25.55;;;3.60;99.90;;;;;;4988913;28;20228;-75
2022/03/04 04:51:13;;;;;;;31.35;26.52;;;3.60;99.90;;;;;;4987253;28;20300;-76
2022/03/04 04:53:40;;;;;;;31.23;26.45;;;3.60;99.90;;;;;;4988218;28;20223;-76
2022/03/04 04:56:07;;;;;;;33.28;27.58;;;3.60;99.90;;;;;;4983935;28;20667;-78
2022/03/04 04:58:36;;;;;;;31.65;26.48;;;3.50;99.90;;;;;;4985753;28;20224;-76
2022/03/04 05:01:03;;;;;;;33.20;28.55;;;3.50;99.90;;;;;;4989289;28;20220;-76
2022/03/04 05:03:30;;;;;;;30.02;25.88;;;3.50;99.90;;;;;;4988881;28;20224;-78
2022/03/04 05:05:57;;;;;;;32.85;27.15;;;3.50;99.90;;;;;;4986146;28;20200;-77
2022/03/04 05:08:26;;;;;;;34.42;28.42;;;3.50;99.90;;;;;;4988110;28;20228;-76
2022/03/04 05:10:54;;;;;;;35.45;28.30;;;3.50;99.90;;;;;;4989193;28;20203;-75
2022/03/04 05:13:21;;;;;;;29.10;25.75;;;3.50;99.90;;;;;;4988188;28;20227;-76
2022/03/04 05:15:50;;;;;;;33.22;26.73;;;3.50;99.90;;;;;;4986382;28;20551;-76
2022/03/04 05:18:17;;;;;;;31.05;26.30;;;3.50;99.90;;;;;;4986773;28;20240;-76
2022/03/04 05:20:44;;;;;;;38.35;30.52;;;3.50;99.90;;;;;;4987507;28;20228;-76
2022/03/04 05:23:58;;;;;;;38.08;30.65;;;3.50;99.90;;;;;;4983515;28;20197;-77
2022/03/04 05:25:59;;;;;;;34.58;29.10;;;3.50;99.90;;;;;;4984750;28;20203;-78
2022/03/04 05:28:26;;;;;;;35.17;29.35;;;3.50;99.90;;;;;;4983572;28;20224;-74
2022/03/04 05:30:54;;;;;;;36.10;28.40;;;3.40;99.90;;;;;;4988301;28;20196;-76
2022/03/04 05:33:22;;;;;;;34.17;27.90;;;3.40;99.90;;;;;;4983848;28;20235;-76
2022/03/04 05:35:49;;;;;;;34.75;28.85;;;3.40;99.90;;;;;;4983814;28;20203;-76
2022/03/04 05:38:16;;;;;;;38.08;30.20;;;3.30;99.90;;;;;;4989376;28;20227;-77
2022/03/04 05:40:43;;;;;;;36.30;28.88;;;3.30;99.90;;;;;;4987841;28;20216;-76
2022/03/04 05:43:10;;;;;;;34.70;27.80;;;3.30;99.90;;;;;;4986818;28;20200;-79
2022/03/04 05:45:38;;;;;;;34.90;27.90;;;3.30;99.90;;;;;;4984863;28;20201;-76
2022/03/04 05:48:07;;;;;;;35.38;29.77;;;3.30;99.90;;;;;;4985108;28;20451;-75
2022/03/04 05:50:34;;;;;;;36.05;29.67;;;3.30;99.90;;;;;;4990734;28;20208;-77
2022/03/04 05:53:01;;;;;;;39.42;32.22;;;3.20;99.90;;;;;;4985269;28;20212;-76
2022/03/04 05:55:28;;;;;;;35.28;28.95;;;3.20;99.90;;;;;;4983616;28;20228;-77
2022/03/04 05:57:56;;;;;;;37.63;30.25;;;3.20;99.90;;;;;;4985933;28;20228;-76
2022/03/04 06:00:23;;;;;;;39.25;30.55;;;3.20;99.90;;;;;;4981458;28;20350;-77
2022/03/04 06:02:50;;;;;;;37.75;30.70;;;3.20;99.90;;;;;;4981815;28;20217;-79
2022/03/04 06:05:20;;;;;;;36.65;30.55;;;3.20;99.90;;;;;;4990655;28;20223;-76
2022/03/04 06:07:47;;;;;;;36.00;29.73;;;3.20;99.90;;;;;;4986293;28;20300;-77
2022/03/04 06:10:14;;;;;;;33.25;26.88;;;3.10;99.90;;;;;;4984265;28;20226;-79
2022/03/04 06:12:41;;;;;;;34.92;28.42;;;3.10;99.90;;;;;;4993352;28;20197;-78
2022/03/04 06:15:09;;;;;;;35.38;28.75;;;3.10;99.90;;;;;;4992594;28;20216;-76
2022/03/04 06:17:36;;;;;;;36.75;28.67;;;3.20;99.90;;;;;;4988033;28;20204;-76
2022/03/04 06:20:04;;;;;;;33.30;28.30;;;3.20;99.90;;;;;;4981764;28;20490;-74
2022/03/04 06:22:33;;;;;;;34.88;29.17;;;3.20;99.90;;;;;;4984626;28;20216;-76
2022/03/04 06:25:00;;;;;;;35.95;29.15;;;3.20;99.90;;;;;;4988052;28;20734;-76
2022/03/04 06:27:28;;;;;;;39.10;29.75;;;3.40;99.90;;;;;;4992091;28;20196;-77
2022/03/04 06:29:55;;;;;;;37.28;30.00;;;3.40;99.90;;;;;;5029034;23;20689;-78
2022/03/04 06:32:22;;;;;;;37.33;31.17;;;3.40;99.90;;;;;;5033327;28;20654;-76
2022/03/04 06:34:49;;;;;;;34.58;29.15;;;3.40;99.90;;;;;;5030646;28;20223;-75
2022/03/04 06:37:17;;;;;;;36.38;29.40;;;3.40;99.90;;;;;;5027430;28;20690;-78
2022/03/04 06:39:45;;;;;;;35.28;29.25;;;3.30;99.90;;;;;;5027885;28;20219;-78
2022/03/04 06:42:12;;;;;;;35.83;29.70;;;3.40;99.90;;;;;;5036144;28;20223;-75
2022/03/04 06:44:39;;;;;;;32.28;27.38;;;3.40;99.90;;;;;;5042330;28;20218;-78
2022/03/04 06:47:07;;;;;;;35.95;29.73;;;3.50;99.90;;;;;;5041421;28;20198;-78
2022/03/04 06:49:35;;;;;;;34.60;27.73;;;3.50;99.90;;;;;;5034894;28;20709;-81
2022/03/04 06:52:03;;;;;;;37.20;29.42;;;3.60;99.90;;;;;;5044924;28;20272;-80
2022/03/04 06:54:32;;;;;;;37.83;30.38;;;3.60;99.90;;;;;;5039869;28;20292;-81
2022/03/04 06:57:01;;;;;;;36.00;29.60;;;3.70;99.90;;;;;;5039904;28;20503;-78
2022/03/04 06:59:28;;;;;;;35.83;29.20;;;3.70;99.90;;;;;;5035265;28;20222;-78
2022/03/04 07:01:55;;;;;;;36.85;30.20;;;3.80;99.90;;;;;;5029045;28;20479;-79
2022/03/04 07:04:22;;;;;;;36.47;29.90;;;3.90;99.90;;;;;;5034869;28;20219;-77
2022/03/04 07:06:49;;;;;;;42.40;33.90;;;4.10;99.90;;;;;;5035688;28;20303;-77
2022/03/04 07:09:16;;;;;;;36.53;30.60;;;4.50;99.90;;;;;;5032172;28;20242;-77
2022/03/04 07:11:44;;;;;;;38.97;31.90;;;4.90;99.90;;;;;;5037223;28;20645;-79
2022/03/04 07:14:12;;;;;;;40.67;32.95;;;5.40;99.90;;;;;;5037606;28;20211;-76
2022/03/04 07:16:39;;;;;;;40.88;34.58;;;5.90;99.90;;;;;;5043919;28;20201;-78
2022/03/04 07:19:07;;;;;;;38.83;32.08;;;6.40;99.90;;;;;;5035620;28;20226;-79
2022/03/04 07:21:34;;;;;;;41.58;33.95;;;6.70;99.90;;;;;;5036592;28;20251;-78
2022/03/04 07:24:01;;;;;;;38.35;32.17;;;7.00;99.90;;;;;;5030702;28;20238;-78
2022/03/04 07:26:28;;;;;;;39.63;32.70;;;7.30;99.90;;;;;;5041221;28;20202;-81
2022/03/04 07:28:56;;;;;;;37.88;31.88;;;7.70;99.90;;;;;;5033961;28;20220;-81
2022/03/04 07:31:24;;;;;;;42.28;32.15;;;7.90;99.90;;;;;;5033564;28;20257;-77
2022/03/04 07:33:51;;;;;;;36.47;31.17;;;8.20;99.90;;;;;;5038630;28;20234;-80
2022/03/04 07:36:19;;;;;;;38.50;33.50;;;8.40;99.90;;;;;;5042924;28;20203;-78
2022/03/04 07:38:46;;;;;;;42.28;35.53;;;8.70;99.90;;;;;;5034939;28;20255;-76
2022/03/04 07:41:13;;;;;;;39.05;33.47;;;9.00;99.90;;;;;;5035257;28;20207;-80
2022/03/04 07:43:41;;;;;;;38.38;32.45;;;9.10;99.90;;;;;;5036799;28;20253;-80
2022/03/04 07:46:08;;;;;;;40.97;32.95;;;9.30;99.90;;;;;;5038335;28;20207;-78
2022/03/04 07:48:36;;;;;;;36.92;32.72;;;9.30;99.90;;;;;;5028678;28;20206;-80
2022/03/04 07:51:05;;;;;;;37.38;31.80;;;9.50;99.90;;;;;;5032570;28;20243;-81
2022/03/04 07:53:32;;;;;;;38.90;31.73;;;9.60;99.90;;;;;;5028835;28;20224;-81
2022/03/04 07:55:59;;;;;;;38.95;32.92;;;9.80;99.90;;;;;;5025821;28;20210;-79
2022/03/04 07:58:26;;;;;;;46.10;35.78;;;10.10;99.90;;;;;;5044166;28;20199;-77
2022/03/04 08:00:53;;;;;;;37.53;32.90;;;10.20;99.90;;;;;;5030977;28;20227;-78
2022/03/04 08:03:20;;;;;;;39.17;33.55;;;10.20;99.90;;;;;;5037399;28;20216;-80
2022/03/04 08:05:49;;;;;;;40.80;32.70;;;10.40;99.90;;;;;;5026486;28;20284;-78
2022/03/04 08:08:16;;;;;;;41.33;33.20;;;10.50;99.90;;;;;;5036897;28;20191;-83
2022/03/04 08:10:43;;;;;;;38.05;32.35;;;10.60;99.90;;;;;;5033162;28;20227;-79
2022/03/04 08:13:10;;;;;;;38.38;33.55;;;10.60;99.90;;;;;;5046052;28;20224;-81
2022/03/04 08:15:38;;;;;;;38.38;33.17;;;10.90;99.90;;;;;;5040607;28;20219;-78
2022/03/04 08:18:05;;;;;;;38.05;32.63;;;11.20;99.90;;;;;;5041833;28;20199;-79
2022/03/04 08:20:33;;;;;;;37.28;30.77;;;11.50;99.90;;;;;;5036383;28;20245;-79
2022/03/04 08:23:01;;;;;;;37.85;32.47;;;11.60;99.90;;;;;;5039060;28;20223;-78
2022/03/04 08:25:29;;;;;;;39.17;33.15;;;11.80;99.90;;;;;;5032250;28;20254;-78
2022/03/04 08:27:56;;;;;;;37.67;33.63;;;12.00;99.90;;;;;;5036085;28;20239;-78
2022/03/04 08:30:23;;;;;;;40.33;34.05;;;12.20;99.90;;;;;;5043528;28;20229;-78
2022/03/04 08:32:51;;;;;;;39.53;31.38;;;12.20;99.90;;;;;;5046282;28;20187;-82
2022/03/04 08:35:18;;;;;;;36.40;31.70;;;12.20;99.90;;;;;;5048486;28;20314;-79
2022/03/04 08:37:45;;;;;;;40.10;33.53;;;12.10;99.90;;;;;;5039913;28;20454;-80
2022/03/04 08:40:14;;;;;;;40.00;33.13;;;12.00;99.90;;;;;;5032397;28;20877;-78
2022/03/04 08:42:43;;;;;;;38.35;32.88;;;12.10;99.90;;;;;;5033959;28;20585;-78
2022/03/04 08:45:11;;;;;;;38.60;32.95;;;12.40;99.90;;;;;;5039621;28;20219;-78
2022/03/04 08:47:38;;;;;;;39.63;33.75;;;12.60;99.90;;;;;;5031639;28;20192;-80
2022/03/04 08:50:07;;;;;;;39.30;34.15;;;12.50;99.90;;;;;;5031400;28;20250;-79
2022/03/04 08:52:34;;;;;;;39.33;33.40;;;12.40;99.90;;;;;;5037602;28;20197;-78
2022/03/04 08:55:01;;;;;;;38.72;33.10;;;12.50;99.90;;;;;;5045700;28;20223;-77
2022/03/04 08:57:31;;;;;;;37.25;31.42;;;12.70;99.90;;;;;;5039196;28;20289;-77
2022/03/04 08:59:58;;;;;;;41.60;35.60;;;13.00;99.90;;;;;;5029762;28;20306;-78
2022/03/04 09:02:25;;;;;;;42.13;35.22;;;13.30;99.90;;;;;;5039365;28;20222;-80
2022/03/04 09:04:53;;;;;;;37.33;32.33;;;13.20;99.90;;;;;;5039861;28;20723;-78
2022/03/04 09:07:21;;;;;;;38.85;33.75;;;13.30;99.90;;;;;;5041656;28;20199;-79
2022/03/04 09:09:48;;;;;;;39.25;33.25;;;13.60;99.20;;;;;;5044977;28;20726;-77
2022/03/04 09:12:17;;;;;;;37.70;33.22;;;13.20;98.50;;;;;;5038812;28;20200;-79
2022/03/04 09:14:45;;;;;;;37.50;32.63;;;13.20;99.00;;;;;;5035677;28;20219;-78
2022/03/04 09:17:13;;;;;;;39.80;33.20;;;13.30;98.80;;;;;;5036397;28;20206;-78
2022/03/04 09:19:40;;;;;;;38.15;33.45;;;13.20;98.20;;;;;;5035983;28;20657;-79
2022/03/04 09:22:08;;;;;;;41.05;35.75;;;13.20;98.90;;;;;;5031863;28;20311;-78
2022/03/04 09:24:35;;;;;;;40.63;35.35;;;13.20;98.30;;;;;;5041972;28;20246;-79
2022/03/04 09:27:02;;;;;;;38.47;33.60;;;13.40;98.10;;;;;;5028143;28;20203;-79
2022/03/04 09:29:30;;;;;;;40.95;34.50;;;13.60;97.80;;;;;;5037348;28;20227;-77
2022/03/04 09:31:58;;;;;;;38.55;32.85;;;13.60;97.50;;;;;;5041979;28;20203;-79
2022/03/04 09:34:25;;;;;;;40.05;35.33;;;13.80;97.40;;;;;;5037323;28;20223;-77
2022/03/04 09:36:52;;;;;;;42.22;34.85;;;13.90;97.40;;;;;;5036769;28;20230;-78
2022/03/04 09:39:20;;;;;;;39.70;33.70;;;14.10;96.90;;;;;;5045023;28;20223;-78
2022/03/04 09:41:47;;;;;;;40.85;34.63;;;14.10;96.90;;;;;;5040762;28;20191;-76
2022/03/04 09:44:16;;;;;;;42.22;37.55;;;14.00;96.90;;;;;;5042877;28;20279;-77
2022/03/04 09:46:44;;;;;;;38.35;33.47;;;14.00;96.70;;;;;;5038379;28;20196;-78
2022/03/04 09:49:17;;;;;;;37.95;33.85;;;13.60;96.30;;;;;;5039658;28;20679;-80
2022/03/04 09:51:44;;;;;;;36.83;32.75;;;13.90;96.80;;;;;;5040626;28;20283;-79
2022/03/04 09:54:11;;;;;;;38.53;33.53;;;14.20;96.60;;;;;;5036504;28;20195;-80
2022/03/04 09:56:39;;;;;;;36.95;32.30;;;14.40;96.20;;;;;;5031073;28;20209;-79
2022/03/04 09:59:06;;;;;;;37.60;32.90;;;14.60;95.80;;;;;;5042786;28;20628;-78
2022/03/04 10:01:34;;;;;;;34.72;30.20;;;14.80;94.70;;;;;;5045323;28;20199;-79
2022/03/04 10:04:01;;;;;;;35.80;32.00;;;15.10;94.40;;;;;;5029493;28;20223;-78
2022/03/04 10:06:29;;;;;;;37.80;33.22;;;15.10;93.10;;;;;;5034380;28;20234;-77
2022/03/04 10:08:57;;;;;;;40.47;32.65;;;15.00;93.80;;;;;;5034465;28;20218;-78
2022/03/04 10:11:32;;;;;;;37.95;33.20;;;14.90;93.70;;;;;;5016015;28;20228;-77
2022/03/04 10:14:00;;;;;;;40.33;34.33;;;15.10;93.70;;;;;;5046635;28;20214;-77
2022/03/04 10:16:29;;;;;;;40.72;34.38;;;15.10;94.20;;;;;;5054248;28;20293;-78
2022/03/04 10:19:10;;;;;;;40.30;33.60;;;15.20;93.70;;;;;;5057059;28;20563;-75
2022/03/04 10:21:56;;;;;;;37.20;33.08;;;15.00;93.30;;;;;;5060687;28;20228;-78
2022/03/04 10:24:27;;;;;;;39.22;33.90;;;15.30;93.40;;;;;;5052949;28;20218;-77
2022/03/04 10:27:02;;;;;;;36.97;32.67;;;15.60;92.90;;;;;;5039064;28;20211;-79
2022/03/04 10:29:31;;;;;;;36.85;32.90;;;15.20;92.80;;;;;;5037347;28;20236;-77
2022/03/04 10:32:14;;;;;;;37.53;32.80;;;14.90;93.60;;;;;;5038735;28;20200;-74
2022/03/04 10:34:46;;;;;;;41.05;35.13;;;14.90;93.80;;;;;;5033353;28;20219;-78
2022/03/04 10:37:16;;;;;;;39.47;34.63;;;14.90;93.10;;;;;;5034760;28;20588;-77
2022/03/04 10:40:05;;;;;;;43.05;37.95;;;15.10;93.30;;;;;;5034429;28;20698;-76
2022/03/04 10:42:47;;;;;;;41.17;36.85;;;15.00;92.70;;;;;;5034508;28;20219;-77
2022/03/04 10:45:17;;;;;;;42.15;37.67;;;15.10;93.60;;;;;;5040113;28;20255;-78
2022/03/04 10:47:50;;;;;;;49.13;40.90;;;15.20;93.60;;;;;;5027896;28;20655;-78
2022/03/04 10:50:19;;;;;;;46.55;39.88;;;14.90;93.20;;;;;;5033578;28;20780;-79
2022/03/04 10:52:57;;;;;;;45.42;40.50;;;14.90;93.60;;;;;;5031454;28;20204;-77
2022/03/04 10:55:42;;;;;;;41.45;37.05;;;15.00;93.60;;;;;;5016869;28;20228;-77
2022/03/04 10:58:15;;;;;;;46.53;40.35;;;14.90;93.80;;;;;;5014850;28;20690;-77
2022/03/04 11:35:01;;;;;;;45.70;40.70;;;15.20;93.10;;;;;;5413191;23;20298;-76
2022/03/04 11:37:31;;;;;;;42.13;37.60;;;15.10;93.70;;;;;;5016882;28;20650;-76
2022/03/04 11:40:03;;;;;;;42.50;38.00;;;15.10;92.10;;;;;;5019262;28;20246;-75
2022/03/04 11:42:38;;;;;;;40.03;35.53;;;15.20;92.40;;;;;;5015218;28;20559;-76
2022/03/04 11:45:07;;;;;;;41.20;36.70;;;15.70;91.70;;;;;;5015981;28;20231;-77
2022/03/04 11:47:45;;;;;;;33.53;30.02;;;16.20;90.70;;;;;;5019883;28;20212;-75
2022/03/04 11:50:29;;;;;;;30.55;27.35;;;16.00;86.30;;;;;;5015127;28;20286;-76
2022/03/04 11:53:12;;;;;;;29.20;26.15;;;16.00;86.80;;;;;;5020632;28;20207;-76
2022/03/04 11:55:39;;;;;;;26.48;23.67;;;16.20;86.20;;;;;;5010293;28;20220;-76
2022/03/04 11:58:07;;;;;;;24.00;21.48;;;16.20;86.30;;;;;;5011014;28;20216;-75
2022/03/04 12:00:39;;;;;;;23.90;21.20;;;15.90;82.30;;;;;;5011699;28;20259;-76
2022/03/04 12:03:18;;;;;;;25.83;21.20;;;15.70;81.40;;;;;;5024009;28;20239;-76
2022/03/04 12:06:00;;;;;;;25.63;22.45;;;15.70;79.80;;;;;;5015197;28;20730;-75
2022/03/04 12:08:39;;;;;;;30.77;27.48;;;16.00;82.10;;;;;;5007845;28;20289;-76
2022/03/04 12:11:06;;;;;;;30.17;26.88;;;15.90;82.70;;;;;;5005084;28;20232;-76
2022/03/04 12:13:42;;;;;;;31.08;26.90;;;15.80;84.00;;;;;;5008080;28;20228;-76
2022/03/04 12:16:09;;;;;;;31.70;28.27;;;15.70;82.60;;;;;;5010944;28;20227;-76
2022/03/04 12:18:48;;;;;;;28.58;25.58;;;15.60;83.20;;;;;;5012205;28;20199;-75
2022/03/04 12:21:27;;;;;;;26.58;23.77;;;15.70;81.90;;;;;;5009188;28;20877;-75
2022/03/04 12:24:00;;;;;;;28.25;24.23;;;15.70;80.60;;;;;;5010689;28;20281;-77
2022/03/04 12:26:35;;;;;;;25.50;22.90;;;15.70;78.00;;;;;;5010480;28;20290;-77
2022/03/04 12:29:07;;;;;;;24.98;21.17;;;15.50;76.60;;;;;;5018457;28;20211;-77
2022/03/04 12:31:39;;;;;;;23.50;21.00;;;15.50;78.60;;;;;;5021535;23;20224;-76
2022/03/04 12:34:15;;;;;;;23.60;21.05;;;15.70;77.30;;;;;;5005343;28;20216;-76
2022/03/04 12:36:44;;;;;;;28.10;24.77;;;16.00;78.00;;;;;;5001346;28;20227;-78
2022/03/04 12:39:11;;;;;;;26.25;23.15;;;16.00;78.20;;;;;;5002857;28;20713;-75
2022/03/04 12:41:39;;;;;;;25.35;22.65;;;15.80;77.20;;;;;;5003151;28;20340;-75
2022/03/04 12:44:07;;;;;;;23.25;20.77;;;15.80;78.40;;;;;;5000987;28;20220;-74
2022/03/04 12:46:36;;;;;;;23.30;18.75;;;16.00;78.60;;;;;;4999813;28;20222;-75
2022/03/04 12:49:05;;;;;;;20.60;17.25;;;16.00;74.60;;;;;;5007447;28;20582;-76
2022/03/04 12:51:33;;;;;;;19.58;17.50;;;16.10;74.50;;;;;;4998470;28;20327;-79
2022/03/04 12:54:04;;;;;;;18.05;16.13;;;16.00;73.20;;;;;;5001096;28;20560;-75
2022/03/04 12:56:31;;;;;;;19.15;15.88;;;16.10;73.10;;;;;;5009353;28;20645;-73
2022/03/04 12:59:01;;;;;;;15.88;14.18;;;15.90;70.80;;;;;;5006493;28;20204;-75
2022/03/04 13:01:29;;;;;;;14.82;13.25;;;15.60;70.50;;;;;;5009850;28;20688;-75
2022/03/04 13:03:58;;;;;;;16.10;14.30;;;15.30;69.50;;;;;;5005864;28;20227;-76
2022/03/04 13:06:26;;;;;;;17.05;15.05;;;15.30;71.10;;;;;;5011210;28;20247;-75
2022/03/04 13:08:56;;;;;;;16.38;14.68;;;15.20;71.20;;;;;;5013187;28;20210;-76
2022/03/04 13:11:26;;;;;;;16.45;14.75;;;15.10;71.70;;;;;;5005771;28;20284;-72
2022/03/04 13:14:02;;;;;;;16.00;14.30;;;15.30;71.80;;;;;;5005758;28;20204;-78
2022/03/04 13:16:34;;;;;;;13.52;12.15;;;15.30;69.40;;;;;;5007435;28;20730;-76